Time;durP1;ratioP1;P1;durP2;ratioP2;P2;SDS_P1;SDS_P2;PMS_P1;PMS_P2;Temp;Humidity;BMP_temperature;BMP_pressure;BME280_temperature;BME280_humidity;BME280_pressure;Samples;Min_cycle;Max_cycle;Signal;HPM_P1;HPM_P2
2023/12/18 00:01:28;;;;;;;19.63;7.22;;;8.70;99.90;;;;;;6190491;23;20015;-74
2023/12/18 00:03:54;;;;;;;;;;;8.70;99.90;;;;;;6190803;23;20440;-74
2023/12/18 00:06:20;;;;;;;24.88;6.32;;;8.70;99.90;;;;;;6190350;23;19922;-74
2023/12/18 00:08:48;;;;;;;19.20;5.57;;;8.70;99.90;;;;;;6187819;23;20017;-74
2023/12/18 00:11:14;;;;;;;21.30;6.20;;;8.70;99.90;;;;;;6190077;23;20035;-74
2023/12/18 00:13:40;;;;;;;15.75;5.90;;;8.70;99.90;;;;;;6190297;23;20017;-74
2023/12/18 00:16:06;;;;;;;18.73;6.88;;;8.70;99.90;;;;;;6217191;23;20017;-74
2023/12/18 00:18:32;;;;;;;21.30;5.68;;;8.70;99.90;;;;;;6190161;23;20020;-74
2023/12/18 00:20:57;;;;;;;18.15;5.65;;;8.70;99.90;;;;;;6190091;23;20017;-74
2023/12/18 00:23:23;;;;;;;20.38;5.57;;;8.70;99.90;;;;;;6190310;23;20009;-74
2023/12/18 00:25:48;;;;;;;19.33;5.00;;;8.70;99.90;;;;;;6190076;23;20017;-74
2023/12/18 00:28:23;;;;;;;16.80;4.55;;;8.70;99.90;;;;;;6190280;23;20448;-74
2023/12/18 00:30:49;;;;;;;18.02;5.63;;;8.70;99.90;;;;;;6190132;23;20062;-74
2023/12/18 00:33:14;;;;;;;16.52;6.10;;;8.70;99.90;;;;;;6190253;23;20060;-74
2023/12/18 00:35:40;;;;;;;17.48;6.13;;;8.70;99.90;;;;;;6190111;23;20016;-74
2023/12/18 00:38:06;;;;;;;19.35;6.45;;;8.70;99.90;;;;;;6190011;23;20099;-74
2023/12/18 00:40:31;;;;;;;18.75;5.50;;;8.70;99.90;;;;;;6189757;23;20503;-74
2023/12/18 00:42:57;;;;;;;16.27;5.38;;;8.70;99.90;;;;;;6190024;23;20008;-74
2023/12/18 00:45:23;;;;;;;18.00;6.18;;;8.70;99.90;;;;;;6187291;23;20334;-74
2023/12/18 00:47:52;;;;;;;19.65;6.00;;;8.70;99.90;;;;;;6189991;23;20025;-75
2023/12/18 00:50:18;;;;;;;22.63;5.97;;;8.70;99.90;;;;;;6189875;23;20031;-74
2023/12/18 00:52:52;;;;;;;19.63;6.60;;;8.70;99.90;;;;;;6214110;23;20091;-74
2023/12/18 00:55:18;;;;;;;18.25;6.40;;;8.70;99.90;;;;;;6189881;23;20056;-74
2023/12/18 00:57:44;;;;;;;14.88;5.55;;;8.70;99.90;;;;;;6189849;23;20024;-74
2023/12/18 01:00:10;;;;;;;15.23;5.18;;;8.70;99.90;;;;;;6189676;23;20043;-74
2023/12/18 01:02:36;;;;;;;18.30;5.93;;;8.70;99.90;;;;;;6189877;23;20017;-74
2023/12/18 01:05:01;;;;;;;23.20;6.72;;;8.70;99.90;;;;;;6189864;23;20086;-74
2023/12/18 01:07:29;;;;;;;15.27;5.97;;;8.70;99.90;;;;;;6216800;23;20036;-74
2023/12/18 01:09:58;;;;;;;21.00;5.50;;;8.70;99.90;;;;;;6189859;23;20018;-74
2023/12/18 01:12:27;;;;;;;15.80;5.82;;;8.70;99.90;;;;;;6216665;23;20016;-74
2023/12/18 01:14:53;;;;;;;18.95;5.65;;;8.70;99.90;;;;;;6216693;23;20088;-74
2023/12/18 01:17:18;;;;;;;19.98;5.78;;;8.70;99.90;;;;;;6216658;23;20055;-74
2023/12/18 01:19:44;;;;;;;16.02;5.32;;;8.70;99.90;;;;;;6189502;23;20074;-74
2023/12/18 01:22:11;;;;;;;15.40;5.13;;;8.70;99.90;;;;;;6216287;23;20476;-74
2023/12/18 01:24:40;;;;;;;15.75;5.43;;;8.70;99.90;;;;;;6216291;23;20027;-74
2023/12/18 01:27:06;;;;;;;18.98;6.38;;;8.70;99.90;;;;;;6189441;23;20437;-74
2023/12/18 01:29:31;;;;;;;18.52;6.32;;;8.70;99.90;;;;;;6186936;23;20023;-75
2023/12/18 01:31:58;;;;;;;16.65;4.72;;;8.70;99.90;;;;;;6189594;23;20031;-74
2023/12/18 01:34:23;;;;;;;16.38;5.78;;;8.70;99.90;;;;;;6189613;23;20048;-74
2023/12/18 01:36:49;;;;;;;17.52;5.28;;;8.70;99.90;;;;;;6189540;23;20100;-74
2023/12/18 01:39:14;;;;;;;16.73;5.57;;;8.70;99.90;;;;;;6189491;23;20020;-74
2023/12/18 01:41:40;;;;;;;18.50;6.10;;;8.70;99.90;;;;;;6189499;23;20012;-74
2023/12/18 01:44:06;;;;;;;16.25;4.90;;;8.70;99.90;;;;;;6189601;23;20074;-74
2023/12/18 01:46:35;;;;;;;17.92;5.65;;;8.80;99.90;;;;;;6189456;23;20433;-74
2023/12/18 01:49:01;;;;;;;16.20;5.95;;;8.80;99.90;;;;;;6215917;23;20511;-74
2023/12/18 01:51:28;;;;;;;20.23;5.78;;;8.70;99.90;;;;;;6189385;23;20067;-74
2023/12/18 01:53:56;;;;;;;17.45;5.90;;;8.70;99.90;;;;;;6216328;23;20016;-74
2023/12/18 01:56:25;;;;;;;17.10;5.40;;;8.70;99.90;;;;;;6216390;23;20019;-74
2023/12/18 01:58:53;;;;;;;20.27;6.47;;;8.80;99.90;;;;;;6216356;23;20024;-74
2023/12/18 02:01:19;;;;;;;14.30;5.00;;;8.70;99.90;;;;;;6189404;23;20090;-75
2023/12/18 02:03:46;;;;;;;13.52;5.78;;;8.70;99.90;;;;;;6216359;23;20016;-74
2023/12/18 02:06:13;;;;;;;18.70;5.93;;;8.70;99.90;;;;;;6216301;23;20013;-74
2023/12/18 02:08:39;;;;;;;21.80;6.65;;;8.70;99.90;;;;;;6189495;23;20048;-74
2023/12/18 02:11:05;;;;;;;19.45;5.90;;;8.70;99.90;;;;;;6189373;23;20012;-74
2023/12/18 02:13:31;;;;;;;17.05;6.03;;;8.70;99.90;;;;;;6189390;23;20017;-74
2023/12/18 02:15:59;;;;;;;14.15;5.57;;;8.70;99.90;;;;;;6216281;23;20008;-74
2023/12/18 02:18:25;;;;;;;15.65;5.60;;;8.70;99.90;;;;;;6189123;23;20434;-74
2023/12/18 02:20:51;;;;;;;18.00;5.10;;;8.70;99.90;;;;;;6189397;23;20124;-74
2023/12/18 02:23:17;;;;;;;14.52;4.88;;;8.70;99.90;;;;;;6189265;23;20341;-74
2023/12/18 02:25:42;;;;;;;17.73;5.85;;;8.60;99.90;;;;;;6189257;23;20017;-74
2023/12/18 02:28:10;;;;;;;20.17;6.10;;;8.70;99.90;;;;;;6189356;23;20052;-74
2023/12/18 02:30:38;;;;;;;22.70;6.03;;;8.70;99.90;;;;;;6188996;23;20023;-74
2023/12/18 02:33:04;;;;;;;14.82;5.63;;;8.70;99.90;;;;;;6189272;23;20021;-74
2023/12/18 02:35:29;;;;;;;15.02;6.15;;;8.60;99.90;;;;;;6189243;23;20016;-74
2023/12/18 02:37:55;;;;;;;13.02;4.78;;;8.60;99.90;;;;;;6216087;23;20016;-74
2023/12/18 02:40:21;;;;;;;18.70;6.22;;;8.60;99.90;;;;;;6216159;23;20023;-74
2023/12/18 02:42:47;;;;;;;20.33;5.93;;;8.70;99.90;;;;;;6189327;23;20052;-74
2023/12/18 02:45:13;;;;;;;17.80;4.80;;;8.60;99.90;;;;;;6189218;23;20032;-74
2023/12/18 02:47:38;;;;;;;25.02;5.60;;;8.70;99.90;;;;;;6189146;23;20044;-74
2023/12/18 02:50:06;;;;;;;15.90;4.95;;;8.70;99.90;;;;;;6189229;23;20059;-74
2023/12/18 02:52:32;;;;;;;17.50;5.43;;;8.70;99.90;;;;;;6189111;23;20071;-74
2023/12/18 02:55:00;;;;;;;19.15;5.35;;;8.70;99.90;;;;;;6189164;23;20020;-74
2023/12/18 02:57:29;;;;;;;17.45;4.53;;;8.70;99.90;;;;;;6188943;23;20432;-74
2023/12/18 02:59:54;;;;;;;15.05;4.95;;;8.70;99.90;;;;;;6188971;23;20028;-74
2023/12/18 03:02:21;;;;;;;15.43;5.32;;;8.70;99.90;;;;;;6189167;23;20105;-74
2023/12/18 03:04:46;;;;;;;22.42;5.72;;;8.70;99.90;;;;;;6190808;23;20047;-74
2023/12/18 03:07:12;;;;;;;15.25;5.20;;;8.70;99.90;;;;;;6217867;23;20352;-74
2023/12/18 03:09:38;;;;;;;16.48;4.65;;;8.80;99.90;;;;;;6217424;23;20016;-74
2023/12/18 03:12:04;;;;;;;13.88;4.85;;;8.70;99.90;;;;;;6190836;23;20019;-75
2023/12/18 03:14:33;;;;;;;16.05;5.60;;;8.70;99.90;;;;;;6217346;23;20488;-74
2023/12/18 03:16:58;;;;;;;15.88;4.80;;;8.80;99.90;;;;;;6190771;23;20022;-74
2023/12/18 03:19:24;;;;;;;18.50;5.15;;;8.70;99.90;;;;;;6190776;23;20095;-74
2023/12/18 03:21:49;;;;;;;14.18;4.97;;;8.80;99.90;;;;;;6190716;23;20023;-74
2023/12/18 03:24:15;;;;;;;18.10;5.93;;;8.70;99.90;;;;;;6190916;23;20023;-74
2023/12/18 03:26:41;;;;;;;18.98;6.35;;;8.80;99.90;;;;;;6190583;23;20449;-74
2023/12/18 03:29:10;;;;;;;14.05;5.95;;;8.80;99.90;;;;;;6190653;23;20023;-74
2023/12/18 03:31:38;;;;;;;21.15;5.32;;;8.80;99.90;;;;;;6190499;23;20527;-74
2023/12/18 03:34:03;;;;;;;12.85;4.60;;;8.80;99.90;;;;;;6190432;23;20348;-74
2023/12/18 03:36:29;;;;;;;18.08;4.90;;;8.70;99.90;;;;;;6190610;23;20469;-74
2023/12/18 03:38:55;;;;;;;14.60;4.95;;;8.80;99.90;;;;;;6190616;23;20024;-74
2023/12/18 03:41:20;;;;;;;19.60;5.43;;;8.70;99.90;;;;;;6190369;23;20345;-74
2023/12/18 03:43:46;;;;;;;16.90;5.75;;;8.70;99.90;;;;;;6190556;23;20016;-74
2023/12/18 03:46:11;;;;;;;13.68;5.05;;;8.70;99.90;;;;;;6190619;23;20092;-74
2023/12/18 03:48:37;;;;;;;13.02;5.22;;;8.70;99.90;;;;;;6190463;23;20020;-74
2023/12/18 03:51:03;;;;;;;17.00;5.07;;;8.70;99.90;;;;;;6190557;23;20040;-74
2023/12/18 03:53:28;;;;;;;14.80;5.13;;;8.70;99.90;;;;;;6190471;23;20016;-74
2023/12/18 03:55:54;;;;;;;18.60;4.82;;;8.70;99.90;;;;;;6190506;23;20028;-74
2023/12/18 03:58:20;;;;;;;17.38;4.90;;;8.80;99.90;;;;;;6190424;23;20064;-74
2023/12/18 04:00:48;;;;;;;15.80;4.28;;;8.80;99.90;;;;;;6217406;23;20052;-74
2023/12/18 04:03:14;;;;;;;21.27;4.50;;;8.80;99.90;;;;;;6190443;23;20071;-74
2023/12/18 04:05:40;;;;;;;18.95;5.68;;;8.80;99.90;;;;;;6217313;23;20028;-74
2023/12/18 04:08:05;;;;;;;20.30;6.13;;;8.80;99.90;;;;;;6190440;23;20027;-74
2023/12/18 04:10:31;;;;;;;16.17;4.47;;;8.70;99.90;;;;;;6190363;23;20013;-75
2023/12/18 04:12:56;;;;;;;17.73;5.18;;;8.70;99.90;;;;;;6190404;23;20396;-74
2023/12/18 04:15:22;;;;;;;17.80;5.00;;;8.70;99.90;;;;;;6216280;23;20388;-74
2023/12/18 04:17:48;;;;;;;14.80;4.53;;;8.80;99.90;;;;;;6217073;23;20024;-74
2023/12/18 04:20:13;;;;;;;14.50;4.28;;;8.80;99.90;;;;;;6190214;23;20028;-74
2023/12/18 04:22:39;;;;;;;16.08;4.97;;;8.80;99.90;;;;;;6190146;23;20012;-74
2023/12/18 04:25:05;;;;;;;16.90;4.97;;;8.80;99.90;;;;;;6190162;23;20024;-74
2023/12/18 04:27:31;;;;;;;14.43;5.25;;;8.80;99.90;;;;;;6190176;23;20025;-74
2023/12/18 04:29:57;;;;;;;12.27;4.75;;;8.80;99.90;;;;;;6189990;23;20455;-74
2023/12/18 04:32:22;;;;;;;17.45;4.85;;;8.80;99.90;;;;;;6190248;23;20036;-74
2023/12/18 04:34:48;;;;;;;16.05;4.97;;;8.80;99.90;;;;;;6190216;23;20013;-74
2023/12/18 04:37:13;;;;;;;10.93;4.70;;;8.80;99.90;;;;;;6190037;23;20036;-74
2023/12/18 04:39:39;;;;;;;17.60;4.45;;;8.80;99.90;;;;;;6189999;23;20024;-74
2023/12/18 04:42:05;;;;;;;14.48;4.05;;;8.70;99.90;;;;;;6190046;23;20013;-74
2023/12/18 04:44:30;;;;;;;15.10;5.13;;;8.70;99.90;;;;;;6189942;23;20511;-74
2023/12/18 04:46:56;;;;;;;14.32;4.90;;;8.70;99.90;;;;;;6190116;23;20062;-74
2023/12/18 04:49:23;;;;;;;19.10;4.80;;;8.70;99.90;;;;;;6189883;23;20043;-74
2023/12/18 04:51:49;;;;;;;21.70;5.53;;;8.70;99.90;;;;;;6189803;23;20020;-74
2023/12/18 04:54:14;;;;;;;16.45;4.55;;;8.70;99.90;;;;;;6189973;23;20074;-74
2023/12/18 04:56:40;;;;;;;18.58;5.45;;;8.70;99.90;;;;;;6189989;23;20310;-74
2023/12/18 04:59:10;;;;;;;15.38;4.65;;;8.70;99.90;;;;;;6189870;23;20207;-74
2023/12/18 05:01:39;;;;;;;14.27;4.40;;;8.70;99.90;;;;;;6189918;23;20433;-74
2023/12/18 05:04:04;;;;;;;17.60;5.43;;;8.80;99.90;;;;;;6189780;23;20111;-74
2023/12/18 05:06:30;;;;;;;19.23;4.85;;;8.70;99.90;;;;;;6189820;23;20378;-74
2023/12/18 05:08:56;;;;;;;17.85;5.05;;;8.80;99.90;;;;;;6216350;23;20088;-74
2023/12/18 05:11:31;;;;;;;17.67;4.53;;;8.80;99.90;;;;;;6189794;23;20437;-74
2023/12/18 05:13:57;;;;;;;14.93;4.50;;;8.80;99.90;;;;;;6189652;23;20402;-74
2023/12/18 05:16:22;;;;;;;17.17;5.22;;;8.80;99.90;;;;;;6189846;23;20091;-74
2023/12/18 05:18:48;;;;;;;16.02;5.00;;;8.80;99.90;;;;;;6189700;23;20028;-74
2023/12/18 05:21:14;;;;;;;23.45;5.45;;;8.80;99.90;;;;;;6189500;23;20083;-74
2023/12/18 05:23:40;;;;;;;21.05;6.07;;;8.80;99.90;;;;;;6189640;23;20126;-74
2023/12/18 05:26:06;;;;;;;18.75;5.90;;;8.80;99.90;;;;;;6189429;23;20091;-74
2023/12/18 05:28:32;;;;;;;21.73;5.72;;;8.80;99.90;;;;;;6189567;23;20021;-74
2023/12/18 05:31:02;;;;;;;14.05;4.90;;;8.80;99.90;;;;;;6189249;23;20092;-74
2023/12/18 05:33:32;;;;;;;14.20;5.38;;;8.90;99.90;;;;;;6189575;23;20052;-74
2023/12/18 05:35:57;;;;;;;18.65;6.05;;;8.80;99.90;;;;;;6189515;23;20016;-74
2023/12/18 05:38:23;;;;;;;16.65;5.43;;;8.80;99.90;;;;;;6189567;23;20017;-74
2023/12/18 05:40:49;;;;;;;17.20;5.32;;;8.90;99.90;;;;;;6216447;23;20023;-74
2023/12/18 05:43:14;;;;;;;16.33;5.20;;;8.80;99.90;;;;;;6216106;23;20091;-74
2023/12/18 05:45:40;;;;;;;18.35;6.28;;;8.90;99.90;;;;;;6216014;23;20034;-74
2023/12/18 05:48:06;;;;;;;15.38;5.50;;;8.90;99.90;;;;;;6189227;23;20429;-74
2023/12/18 05:50:32;;;;;;;19.73;5.88;;;8.80;99.90;;;;;;6189345;23;20064;-74
2023/12/18 05:52:58;;;;;;;18.73;5.97;;;8.90;99.90;;;;;;6189374;23;20092;-74
2023/12/18 05:55:23;;;;;;;15.55;5.95;;;8.80;99.90;;;;;;6189195;23;20059;-74
2023/12/18 05:57:49;;;;;;;16.73;5.60;;;8.80;99.90;;;;;;6189525;23;20507;-74
2023/12/18 06:00:15;;;;;;;23.67;6.10;;;8.80;99.90;;;;;;6189569;23;20017;-74
2023/12/18 06:02:40;;;;;;;18.02;6.30;;;8.80;99.90;;;;;;6189349;23;20028;-74
2023/12/18 06:05:07;;;;;;;21.27;6.80;;;8.80;99.90;;;;;;6189087;23;20019;-74
2023/12/18 06:07:33;;;;;;;18.85;6.03;;;8.80;99.90;;;;;;6189351;23;20084;-74
2023/12/18 06:09:58;;;;;;;16.90;5.30;;;8.70;99.90;;;;;;6189461;23;20017;-74
2023/12/18 06:12:24;;;;;;;15.30;5.07;;;8.80;99.90;;;;;;6216186;23;20079;-74
2023/12/18 06:14:49;;;;;;;24.73;5.43;;;8.80;99.90;;;;;;6189805;23;20095;-75
2023/12/18 06:17:15;;;;;;;20.83;5.95;;;8.80;99.90;;;;;;6189419;23;20024;-74
2023/12/18 06:19:41;;;;;;;21.05;5.10;;;8.70;99.90;;;;;;6189228;23;20449;-74
2023/12/18 06:22:06;;;;;;;29.38;5.55;;;8.70;99.90;;;;;;6189415;23;20019;-74
2023/12/18 06:24:32;;;;;;;28.42;6.30;;;8.70;99.90;;;;;;6189374;23;20047;-74
2023/12/18 06:26:58;;;;;;;17.40;5.30;;;8.70;99.90;;;;;;6189570;23;20040;-74
2023/12/18 06:29:27;;;;;;;16.95;5.38;;;8.70;99.90;;;;;;6189131;23;20020;-76
2023/12/18 06:31:53;;;;;;;18.42;5.72;;;8.70;99.90;;;;;;6189098;23;20021;-75
2023/12/18 06:34:22;;;;;;;24.85;5.80;;;8.70;99.90;;;;;;6188841;23;20019;-74
2023/12/18 06:36:48;;;;;;;20.98;5.53;;;8.70;99.90;;;;;;6189050;23;20515;-74
2023/12/18 06:39:14;;;;;;;21.73;5.65;;;8.80;99.90;;;;;;6190652;23;20021;-74
2023/12/18 06:41:39;;;;;;;16.42;5.82;;;8.80;99.90;;;;;;6191297;23;20091;-74
2023/12/18 06:44:05;;;;;;;18.17;6.35;;;8.80;99.90;;;;;;6191141;23;20040;-74
2023/12/18 06:46:32;;;;;;;17.30;5.00;;;8.80;99.90;;;;;;6191097;23;20012;-74
2023/12/18 06:48:58;;;;;;;17.88;5.63;;;8.80;99.90;;;;;;6191038;23;20070;-74
2023/12/18 06:51:24;;;;;;;24.73;6.65;;;8.80;99.90;;;;;;6191474;23;20423;-74
2023/12/18 06:53:50;;;;;;;23.63;5.38;;;8.80;99.90;;;;;;6191062;23;20400;-74
2023/12/18 06:56:18;;;;;;;21.67;5.60;;;8.80;99.90;;;;;;6190980;23;20009;-74
2023/12/18 06:58:44;;;;;;;16.02;5.07;;;8.80;99.90;;;;;;6190898;23;20096;-74
2023/12/18 07:01:10;;;;;;;16.70;6.35;;;8.80;99.90;;;;;;6191125;23;20048;-74
2023/12/18 07:03:38;;;;;;;23.55;5.93;;;8.80;99.90;;;;;;6190819;23;20095;-74
2023/12/18 07:06:05;;;;;;;16.95;6.07;;;8.80;99.90;;;;;;6190929;23;20048;-74
2023/12/18 07:08:31;;;;;;;19.15;5.85;;;8.80;99.90;;;;;;6190895;23;20020;-74
2023/12/18 07:10:57;;;;;;;18.05;5.40;;;8.80;99.90;;;;;;6190885;23;20032;-74
2023/12/18 07:13:23;;;;;;;17.33;5.15;;;8.90;99.90;;;;;;6190837;23;20076;-74
2023/12/18 07:15:48;;;;;;;20.77;5.88;;;8.80;99.90;;;;;;6190706;23;20059;-74
2023/12/18 07:18:14;;;;;;;21.48;5.32;;;8.80;99.90;;;;;;6190513;23;20032;-74
2023/12/18 07:20:41;;;;;;;18.60;5.50;;;8.80;99.90;;;;;;6190679;23;20012;-74
2023/12/18 07:23:10;;;;;;;19.30;5.43;;;8.80;99.90;;;;;;6190755;23;20047;-75
2023/12/18 07:25:37;;;;;;;23.75;5.28;;;8.80;99.90;;;;;;6190726;23;20445;-75
2023/12/18 07:28:09;;;;;;;20.40;6.95;;;8.80;99.90;;;;;;6190745;23;20345;-75
2023/12/18 07:30:38;;;;;;;19.77;6.75;;;8.80;99.90;;;;;;6190596;23;20013;-75
2023/12/18 07:33:04;;;;;;;21.25;6.03;;;8.80;99.90;;;;;;6190689;23;20028;-75
2023/12/18 07:35:30;;;;;;;20.08;6.18;;;8.80;99.90;;;;;;6217602;23;20023;-75
2023/12/18 07:37:58;;;;;;;17.33;5.35;;;8.80;99.90;;;;;;6190590;23;20051;-74
2023/12/18 07:40:24;;;;;;;25.42;9.05;;;8.80;99.90;;;;;;6190087;23;20024;-75
2023/12/18 07:42:50;;;;;;;21.52;9.25;;;8.70;99.90;;;;;;6190751;23;20388;-75
2023/12/18 07:45:15;;;;;;;22.85;10.15;;;8.70;99.90;;;;;;6190671;23;20023;-75
2023/12/18 07:47:41;;;;;;;26.00;10.55;;;8.60;99.90;;;;;;6190579;23;20016;-74
2023/12/18 07:50:08;;;;;;;26.17;10.93;;;8.60;99.90;;;;;;6190437;23;20036;-74
2023/12/18 07:52:34;;;;;;;34.10;12.13;;;8.50;99.90;;;;;;6190420;23;20016;-75
2023/12/18 07:54:59;;;;;;;33.83;13.00;;;8.50;99.90;;;;;;6190369;23;20020;-75
2023/12/18 07:57:25;;;;;;;24.50;13.07;;;8.50;99.90;;;;;;6190465;23;20080;-75
2023/12/18 07:59:51;;;;;;;30.00;13.15;;;8.40;99.90;;;;;;6190278;23;20017;-75
2023/12/18 08:02:16;;;;;;;35.17;14.73;;;8.40;99.90;;;;;;6189795;23;20013;-75
2023/12/18 08:04:42;;;;;;;25.35;13.23;;;8.30;99.90;;;;;;6190257;23;20075;-75
2023/12/18 08:07:07;;;;;;;24.95;15.80;;;8.40;99.90;;;;;;6190145;23;20465;-75
2023/12/18 08:09:33;;;;;;;34.42;16.38;;;8.30;99.90;;;;;;6190161;23;20016;-76
2023/12/18 08:11:59;;;;;;;31.13;16.45;;;8.30;99.90;;;;;;6190387;23;20044;-75
2023/12/18 08:14:24;;;;;;;34.40;17.80;;;8.30;99.90;;;;;;6217073;23;20039;-75
2023/12/18 08:16:50;;;;;;;41.92;19.23;;;8.20;99.90;;;;;;6217083;23;20004;-75
2023/12/18 08:19:16;;;;;;;38.92;17.45;;;8.20;99.90;;;;;;6189984;23;20020;-75
2023/12/18 08:21:41;;;;;;;42.38;18.77;;;8.20;99.90;;;;;;6190112;23;20059;-75
2023/12/18 08:24:07;;;;;;;34.13;18.35;;;8.20;99.90;;;;;;6190198;23;20028;-76
2023/12/18 08:26:33;;;;;;;33.22;18.35;;;8.10;99.90;;;;;;6190306;23;20017;-75
2023/12/18 08:28:59;;;;;;;39.72;18.33;;;8.10;99.90;;;;;;6190096;23;20067;-75
2023/12/18 08:31:26;;;;;;;44.05;19.80;;;8.10;99.90;;;;;;6189939;23;20100;-75
2023/12/18 08:33:52;;;;;;;38.97;20.15;;;8.10;99.90;;;;;;6189987;23;20020;-76
2023/12/18 08:36:18;;;;;;;36.28;20.50;;;8.10;99.90;;;;;;6190141;23;20016;-75
2023/12/18 08:38:44;;;;;;;44.58;21.25;;;8.10;99.90;;;;;;6189906;23;20017;-74
2023/12/18 08:41:10;;;;;;;46.50;22.35;;;8.10;99.90;;;;;;6190003;23;20047;-76
2023/12/18 08:43:35;;;;;;;38.83;21.17;;;8.00;99.90;;;;;;6216422;23;20387;-76
2023/12/18 08:46:01;;;;;;;31.95;19.77;;;8.10;99.90;;;;;;6216275;23;20026;-75
2023/12/18 08:48:26;;;;;;;41.97;21.02;;;8.10;99.90;;;;;;6189819;23;20028;-75
2023/12/18 08:50:59;;;;;;;43.78;22.00;;;8.10;99.90;;;;;;6189694;23;20012;-75
2023/12/18 08:53:27;;;;;;;40.78;20.65;;;8.00;99.90;;;;;;6189791;23;20389;-75
2023/12/18 08:55:53;;;;;;;46.33;20.45;;;8.00;99.90;;;;;;6189601;23;20008;-75
2023/12/18 08:58:20;;;;;;;41.58;19.15;;;8.10;99.90;;;;;;6189518;23;20104;-75
2023/12/18 09:00:46;;;;;;;44.28;19.90;;;8.10;99.90;;;;;;6189530;23;20056;-75
2023/12/18 09:03:12;;;;;;;42.22;19.42;;;8.10;99.90;;;;;;6189772;23;20012;-75
2023/12/18 09:05:37;;;;;;;44.17;18.73;;;8.10;99.90;;;;;;6189745;23;20024;-76
2023/12/18 09:08:05;;;;;;;34.38;18.17;;;8.20;99.90;;;;;;6216581;23;20012;-76
2023/12/18 09:10:34;;;;;;;37.58;17.95;;;8.20;99.90;;;;;;6189556;23;20024;-76
2023/12/18 09:12:59;;;;;;;42.33;18.63;;;8.20;99.90;;;;;;6189712;23;20017;-76
2023/12/18 09:15:25;;;;;;;39.20;19.63;;;8.20;99.90;;;;;;6215999;23;20027;-75
2023/12/18 09:17:50;;;;;;;40.92;18.98;;;8.20;99.90;;;;;;6189290;23;20052;-76
2023/12/18 09:20:16;;;;;;;40.35;19.13;;;8.20;99.90;;;;;;6189217;23;20299;-76
2023/12/18 09:22:42;;;;;;;39.40;17.85;;;8.20;99.90;;;;;;6216375;23;20021;-76
2023/12/18 09:25:08;;;;;;;39.92;17.83;;;8.20;99.90;;;;;;6189133;23;20021;-76
2023/12/18 09:27:33;;;;;;;36.78;18.67;;;8.30;99.90;;;;;;6188507;23;20083;-76
2023/12/18 09:30:02;;;;;;;38.42;19.05;;;8.30;99.90;;;;;;6215427;23;20027;-75
2023/12/18 09:32:32;;;;;;;33.28;19.30;;;8.30;99.90;;;;;;6189263;23;20029;-75
2023/12/18 09:34:58;;;;;;;37.35;17.58;;;8.30;99.90;;;;;;6189181;23;20020;-75
2023/12/18 09:37:25;;;;;;;38.75;16.52;;;8.30;99.90;;;;;;6189384;23;20385;-75
2023/12/18 09:39:51;;;;;;;42.85;19.00;;;8.30;99.90;;;;;;6215580;23;20440;-75
2023/12/18 09:42:16;;;;;;;37.38;16.67;;;8.30;99.90;;;;;;6189225;23;20058;-75
2023/12/18 09:44:46;;;;;;;38.80;16.65;;;8.30;99.90;;;;;;6189313;23;20027;-75
2023/12/18 09:47:13;;;;;;;38.00;17.33;;;8.40;99.90;;;;;;6189266;23;20023;-75
2023/12/18 09:49:39;;;;;;;33.22;16.45;;;8.30;99.90;;;;;;6189189;23;20091;-75
2023/12/18 09:52:08;;;;;;;36.00;18.30;;;8.40;99.90;;;;;;6189194;23;20063;-75
2023/12/18 09:54:34;;;;;;;39.40;16.60;;;8.40;99.90;;;;;;6189069;23;20020;-75
2023/12/18 09:57:05;;;;;;;39.65;18.00;;;8.40;99.90;;;;;;6189199;23;20020;-75
2023/12/18 09:59:31;;;;;;;38.50;18.33;;;8.40;99.90;;;;;;6188812;23;20100;-77
2023/12/18 10:01:58;;;;;;;38.20;17.90;;;8.40;99.90;;;;;;6188950;23;20044;-74
2023/12/18 10:04:24;;;;;;;39.97;18.70;;;8.40;99.90;;;;;;6188787;23;20092;-75
2023/12/18 10:06:54;;;;;;;34.08;17.05;;;8.40;99.90;;;;;;6188951;23;20041;-75
2023/12/18 10:09:19;;;;;;;34.65;18.63;;;8.40;99.90;;;;;;6189144;23;20016;-75
2023/12/18 10:11:48;;;;;;;37.10;17.30;;;8.40;99.90;;;;;;6216343;23;20380;-75
2023/12/18 10:14:14;;;;;;;35.53;18.27;;;8.40;99.90;;;;;;6218040;23;20086;-75
2023/12/18 10:16:40;;;;;;;45.50;19.33;;;8.40;99.90;;;;;;6190939;23;20009;-75
2023/12/18 10:19:08;;;;;;;36.20;18.05;;;8.40;99.90;;;;;;6190328;23;20027;-75
2023/12/18 10:21:34;;;;;;;41.10;18.92;;;8.40;99.90;;;;;;6191076;23;20023;-75
2023/12/18 10:24:01;;;;;;;33.67;17.65;;;8.40;99.90;;;;;;6191002;23;20012;-75
2023/12/18 10:26:28;;;;;;;43.97;18.58;;;8.40;99.90;;;;;;6190983;23;20048;-75
2023/12/18 10:28:54;;;;;;;44.85;18.85;;;8.40;99.90;;;;;;6191131;23;20196;-75
2023/12/18 10:31:23;;;;;;;39.92;18.08;;;8.50;99.90;;;;;;6217431;23;20075;-75
2023/12/18 10:33:49;;;;;;;37.67;18.35;;;8.40;99.90;;;;;;6190847;23;20032;-75
2023/12/18 10:36:16;;;;;;;32.63;17.75;;;8.40;99.90;;;;;;6190859;23;20021;-75
2023/12/18 10:38:47;;;;;;;33.47;17.30;;;8.50;99.90;;;;;;6190746;23;20400;-75
2023/12/18 10:41:14;;;;;;;39.85;18.73;;;8.50;99.90;;;;;;6191098;23;20452;-75
2023/12/18 10:43:44;;;;;;;36.05;19.05;;;8.50;99.90;;;;;;6190933;23;20017;-76
2023/12/18 10:46:11;;;;;;;34.72;18.33;;;8.50;99.90;;;;;;6190851;23;20016;-75
2023/12/18 10:48:37;;;;;;;32.25;18.55;;;8.50;99.90;;;;;;6217584;23;20013;-75
2023/12/18 10:51:04;;;;;;;37.80;19.00;;;8.50;99.90;;;;;;6190756;23;20032;-75
2023/12/18 10:53:35;;;;;;;43.55;19.27;;;8.50;99.90;;;;;;6190814;23;20083;-75
2023/12/18 10:56:03;;;;;;;35.22;19.70;;;8.50;99.90;;;;;;6190752;23;20048;-75
2023/12/18 10:58:40;;;;;;;33.45;17.75;;;8.50;99.90;;;;;;6217493;23;20016;-75
2023/12/18 11:01:07;;;;;;;40.05;19.25;;;8.50;99.90;;;;;;6190485;23;20028;-75
2023/12/18 11:03:36;;;;;;;38.13;17.10;;;8.50;99.90;;;;;;6217491;23;20016;-75
2023/12/18 11:06:02;;;;;;;38.85;18.50;;;8.50;99.90;;;;;;6190493;23;20027;-75
2023/12/18 11:08:28;;;;;;;36.03;17.52;;;8.50;99.90;;;;;;6190728;23;20087;-75
2023/12/18 11:10:57;;;;;;;38.22;17.83;;;8.50;99.90;;;;;;6190515;23;20468;-75
2023/12/18 11:13:27;;;;;;;37.70;18.13;;;8.50;99.90;;;;;;6190557;23;20048;-75
2023/12/18 11:16:12;;;;;;;38.83;16.55;;;8.50;99.90;;;;;;6190718;23;20059;-75
2023/12/18 11:19:11;;;;;;;38.65;16.75;;;8.50;99.90;;;;;;6190280;23;20066;-75
2023/12/18 11:21:37;;;;;;;31.42;16.40;;;8.60;99.90;;;;;;6217032;23;20432;-75
2023/12/18 11:24:13;;;;;;;44.38;17.48;;;8.60;99.90;;;;;;6187301;23;20028;-75
2023/12/18 11:26:46;;;;;;;33.15;18.83;;;8.60;99.90;;;;;;6190467;23;20025;-75
2023/12/18 11:29:36;;;;;;;34.92;17.45;;;8.60;99.90;;;;;;6190277;23;20396;-76
2023/12/18 11:32:03;;;;;;;32.80;15.93;;;8.60;99.90;;;;;;6190362;23;20017;-76
2023/12/18 11:34:29;;;;;;;36.47;17.95;;;8.60;99.90;;;;;;6190259;23;20024;-75
2023/12/18 11:36:54;;;;;;;41.45;17.50;;;8.70;99.90;;;;;;6190291;23;20073;-76
2023/12/18 11:39:21;;;;;;;34.58;14.80;;;8.70;99.90;;;;;;6190388;23;20016;-76
2023/12/18 11:41:52;;;;;;;37.08;16.77;;;8.70;99.90;;;;;;6190239;23;20021;-76
2023/12/18 11:44:21;;;;;;;35.35;17.88;;;8.60;99.90;;;;;;6190316;23;20012;-76
2023/12/18 11:46:50;;;;;;;40.40;15.85;;;8.60;99.90;;;;;;6189726;23;20023;-76
2023/12/18 11:49:17;;;;;;;41.00;20.50;;;8.70;99.90;;;;;;6189924;23;20059;-76
2023/12/18 11:51:43;;;;;;;34.28;16.83;;;8.70;99.90;;;;;;6190169;23;20021;-75
2023/12/18 11:54:13;;;;;;;36.15;17.80;;;8.70;99.90;;;;;;6189937;23;20051;-76
2023/12/18 11:56:41;;;;;;;36.85;18.23;;;8.70;99.90;;;;;;6189974;23;20439;-76
2023/12/18 11:59:07;;;;;;;38.00;17.98;;;8.60;99.90;;;;;;6190132;23;20021;-75
2023/12/18 12:01:33;;;;;;;35.25;18.17;;;8.70;99.90;;;;;;6190072;23;20403;-75
2023/12/18 12:03:59;;;;;;;42.22;18.33;;;8.70;99.90;;;;;;6190137;23;20095;-74
2023/12/18 12:06:26;;;;;;;41.40;18.58;;;8.60;99.90;;;;;;6190199;23;20013;-74
2023/12/18 12:08:51;;;;;;;42.97;17.65;;;8.60;99.90;;;;;;6189996;23;20067;-74
2023/12/18 12:11:18;;;;;;;31.55;17.83;;;8.60;99.90;;;;;;6190012;23;20016;-75
2023/12/18 12:13:52;;;;;;;38.05;18.52;;;8.60;99.90;;;;;;6189636;23;20012;-74
2023/12/18 12:16:18;;;;;;;35.65;18.10;;;8.60;99.90;;;;;;6190031;23;20021;-75
2023/12/18 12:18:50;;;;;;;36.67;17.00;;;8.60;99.90;;;;;;6189794;23;20024;-75
2023/12/18 12:21:17;;;;;;;38.50;18.05;;;8.60;99.90;;;;;;6190061;23;20027;-75
2023/12/18 12:23:47;;;;;;;37.38;18.58;;;8.60;99.90;;;;;;6216756;23;20106;-75
2023/12/18 12:26:18;;;;;;;42.45;20.10;;;8.60;99.90;;;;;;6189727;23;20377;-75
2023/12/18 12:28:43;;;;;;;33.95;16.42;;;8.60;99.90;;;;;;6189770;23;20017;-74
2023/12/18 12:31:09;;;;;;;36.00;19.02;;;8.60;99.90;;;;;;6189807;23;20348;-75
2023/12/18 12:33:42;;;;;;;43.83;18.75;;;8.60;99.90;;;;;;6189876;23;20016;-77
2023/12/18 12:36:24;;;;;;;38.38;18.83;;;8.60;99.90;;;;;;6216024;23;20025;-75
2023/12/18 12:38:52;;;;;;;37.08;19.30;;;8.60;99.90;;;;;;6189592;23;20024;-76
2023/12/18 12:41:18;;;;;;;37.50;17.65;;;8.60;99.90;;;;;;6189755;23;20016;-75